Time,TemperatureF,DewpointF,PressureIn,WindDirection,WindDirectionDegrees,WindSpeedMPH,WindSpeedGustMPH,Humidity,HourlyPrecipIn,Conditions,Clouds,dailyrainin,SoftwareType,DateUTC
2013-05-22 00:01:00,65.4,63.9,29.70,South,184,2.0,10.0,95,0.01,,---,1.34,VWS V14.01,2013-05-22 05:01:00,
2013-05-22 00:06:00,65.5,64.0,29.70,South,179,3.0,11.0,95,0.00,,---,0.00,VWS V14.01,2013-05-22 05:06:00,
2013-05-22 00:11:00,65.5,64.0,29.70,South,169,1.0,11.0,95,0.01,,---,0.01,VWS V14.01,2013-05-22 05:11:00,
2013-05-22 00:16:00,65.5,64.0,29.70,South,181,1.0,11.0,95,0.01,,---,0.01,VWS V14.01,2013-05-22 05:16:00,
2013-05-22 00:21:00,65.5,64.0,29.70,South,174,3.0,11.0,95,0.01,,---,0.01,VWS V14.01,2013-05-22 05:21:00,
2013-05-22 00:26:00,65.5,64.0,29.70,SSW,200,1.0,11.0,95,0.02,,---,0.02,VWS V14.01,2013-05-22 05:26:00,
2013-05-22 00:31:00,65.5,64.0,29.70,SE,138,2.0,11.0,95,0.02,,---,0.02,VWS V14.01,2013-05-22 05:31:00,
2013-05-22 00:36:00,65.5,64.0,29.70,South,174,2.0,11.0,95,0.03,,---,0.03,VWS V14.01,2013-05-22 05:36:00,
2013-05-22 00:41:00,65.5,64.0,29.70,SE,144,0.0,11.0,95,0.03,,---,0.03,VWS V14.01,2013-05-22 05:41:00,
2013-05-22 00:46:00,65.5,64.0,29.69,South,185,5.0,11.0,95,0.04,,---,0.04,VWS V14.01,2013-05-22 05:46:00,
2013-05-22 00:51:00,65.5,64.0,29.69,SSW,194,11.0,13.0,95,0.04,,---,0.04,VWS V14.01,2013-05-22 05:51:00,
2013-05-22 00:56:00,65.5,64.0,29.69,SSE,164,8.0,13.0,95,0.04,,---,0.04,VWS V14.01,2013-05-22 05:56:00,
2013-05-22 01:01:00,65.5,64.0,29.67,South,187,3.0,13.0,95,0.04,,---,0.04,VWS V14.01,2013-05-22 06:01:00,
2013-05-22 01:06:00,65.5,64.0,29.67,South,184,7.0,12.0,95,0.04,,---,0.04,VWS V14.01,2013-05-22 06:06:00,
2013-05-22 01:11:00,65.5,64.0,29.67,South,187,2.0,12.0,95,0.04,,---,0.04,VWS V14.01,2013-05-22 06:11:00,
2013-05-22 01:16:00,65.4,63.9,29.65,SSE,166,0.0,12.0,95,0.04,,---,0.04,VWS V14.01,2013-05-22 06:16:00,
2013-05-22 01:21:00,65.5,64.0,29.65,South,182,0.0,12.0,95,0.04,,---,0.04,VWS V14.01,2013-05-22 06:21:00,
2013-05-22 01:26:00,65.5,64.0,29.65,SW,216,1.0,12.0,95,0.04,,---,0.04,VWS V14.01,2013-05-22 06:26:00,
2013-05-22 01:31:00,65.5,64.0,29.66,West,260,0.0,12.0,95,0.04,,---,0.04,VWS V14.01,2013-05-22 06:31:00,
2013-05-22 01:36:00,65.5,64.0,29.66,WSW,238,3.0,7.0,95,0.02,,---,0.04,VWS V14.01,2013-05-22 06:36:00,
2013-05-22 01:41:00,65.5,64.0,29.66,SSW,208,4.0,7.0,95,0.02,,---,0.04,VWS V14.01,2013-05-22 06:41:00,
2013-05-22 01:46:00,65.5,64.0,29.66,SSW,205,5.0,7.0,95,0.02,,---,0.04,VWS V14.01,2013-05-22 06:46:00,
2013-05-22 01:51:00,65.5,64.0,29.66,South,173,0.0,10.0,95,0.02,,---,0.04,VWS V14.01,2013-05-22 06:51:00,
2013-05-22 02:10:00,65.5,64.0,29.66,South,169,3.0,10.0,95,0.02,,---,0.06,VWS V14.01,2013-05-22 07:10:00,
2013-05-22 02:15:00,65.4,63.9,29.66,SSE,156,3.0,11.0,95,0.03,,---,0.07,VWS V14.01,2013-05-22 07:15:00,
2013-05-22 02:20:00,65.3,63.8,29.65,South,189,1.0,11.0,95,0.04,,---,0.08,VWS V14.01,2013-05-22 07:20:00,
2013-05-22 02:25:00,65.3,63.8,29.65,SSW,210,3.0,11.0,95,0.06,,---,0.10,VWS V14.01,2013-05-22 07:25:00,
2013-05-22 02:30:00,65.2,63.4,29.65,South,177,2.0,11.0,94,0.06,,---,0.10,VWS V14.01,2013-05-22 07:30:00,
2013-05-22 02:35:00,65.0,63.5,29.64,SSW,200,0.0,4.0,95,0.07,,---,0.11,VWS V14.01,2013-05-22 07:35:00,
2013-05-22 02:40:00,64.9,63.1,29.64,South,188,0.0,6.0,94,0.08,,---,0.12,VWS V14.01,2013-05-22 07:40:00,
2013-05-22 02:45:00,64.8,63.0,29.64,SSW,198,1.0,7.0,94,0.09,,---,0.13,VWS V14.01,2013-05-22 07:45:00,
2013-05-22 02:50:00,64.7,62.9,29.63,South,175,4.0,8.0,94,0.09,,---,0.13,VWS V14.01,2013-05-22 07:50:00,
2013-05-22 02:55:00,64.7,62.9,29.63,South,177,2.0,8.0,94,0.10,,---,0.14,VWS V14.01,2013-05-22 07:55:00,
2013-05-22 03:00:00,64.7,62.9,29.63,SSE,161,0.0,8.0,94,0.12,,---,0.16,VWS V14.01,2013-05-22 08:00:00,
2013-05-22 03:05:00,64.7,62.9,29.61,SSE,166,0.0,9.0,94,0.12,,---,0.17,VWS V14.01,2013-05-22 08:05:00,
2013-05-22 03:10:00,64.6,62.8,29.61,SSE,156,3.0,9.0,94,0.13,,---,0.18,VWS V14.01,2013-05-22 08:10:00,
2013-05-22 03:15:00,64.6,62.8,29.61,SSE,167,2.0,9.0,94,0.13,,---,0.18,VWS V14.01,2013-05-22 08:15:00,
2013-05-22 03:20:00,64.6,62.8,29.62,SSE,158,1.0,13.0,94,0.13,,---,0.18,VWS V14.01,2013-05-22 08:20:00,
2013-05-22 03:25:00,64.6,62.8,29.62,South,182,2.0,13.0,94,0.14,,---,0.19,VWS V14.01,2013-05-22 08:25:00,
2013-05-22 03:30:00,64.6,62.8,29.62,SSE,154,0.0,13.0,94,0.14,,---,0.19,VWS V14.01,2013-05-22 08:30:00,
2013-05-22 03:35:00,64.6,62.8,29.62,SSE,168,3.0,5.0,94,0.08,,---,0.19,VWS V14.01,2013-05-22 08:35:00,
2013-05-22 03:40:00,64.5,62.7,29.62,South,173,2.0,5.0,94,0.08,,---,0.19,VWS V14.01,2013-05-22 08:40:00,
2013-05-22 03:45:00,64.5,62.7,29.62,South,173,0.0,5.0,94,0.08,,---,0.19,VWS V14.01,2013-05-22 08:45:00,
2013-05-22 03:50:00,64.5,62.7,29.67,South,173,0.0,5.0,94,0.08,,---,0.19,VWS V14.01,2013-05-22 08:50:00,
2013-05-22 03:55:00,64.4,62.9,29.67,South,173,0.0,5.0,95,0.08,,---,0.19,VWS V14.01,2013-05-22 08:55:00,
2013-05-22 04:00:00,64.3,62.8,29.67,SSE,160,0.0,5.0,95,0.08,,---,0.19,VWS V14.01,2013-05-22 09:00:00,
2013-05-22 04:05:00,64.3,62.8,29.67,WSW,246,0.0,2.0,95,0.03,,---,0.19,VWS V14.01,2013-05-22 09:05:00,
2013-05-22 04:10:00,64.2,62.7,29.67,WSW,246,0.0,2.0,95,0.03,,---,0.19,VWS V14.01,2013-05-22 09:10:00,
2013-05-22 04:15:00,64.2,62.7,29.67,West,281,0.0,2.0,95,0.03,,---,0.19,VWS V14.01,2013-05-22 09:15:00,
2013-05-22 04:20:00,64.1,62.6,29.67,West,281,0.0,2.0,95,0.03,,---,0.19,VWS V14.01,2013-05-22 09:20:00,
2013-05-22 04:25:00,64.1,62.6,29.67,West,273,0.0,2.0,95,0.03,,---,0.19,VWS V14.01,2013-05-22 09:25:00,
2013-05-22 04:30:00,64.0,62.5,29.67,West,273,0.0,2.0,95,0.03,,---,0.19,VWS V14.01,2013-05-22 09:30:00,
2013-05-22 04:35:00,64.0,62.5,29.68,West,273,0.0,1.0,95,0.00,,---,0.19,VWS V14.01,2013-05-22 09:35:00,
2013-05-22 04:40:00,64.0,62.5,29.68,West,273,0.0,1.0,95,0.00,,---,0.19,VWS V14.01,2013-05-22 09:40:00,
2013-05-22 04:45:00,64.0,62.5,29.68,SSE,155,0.0,2.0,95,0.00,,---,0.19,VWS V14.01,2013-05-22 09:45:00,
2013-05-22 04:50:00,64.0,62.5,29.68,SSE,155,0.0,2.0,95,0.00,,---,0.19,VWS V14.01,2013-05-22 09:50:00,
2013-05-22 04:55:00,63.9,62.4,29.68,SSE,155,0.0,2.0,95,0.00,,---,0.19,VWS V14.01,2013-05-22 09:55:00,
2013-05-22 05:00:00,63.8,62.3,29.68,SSE,155,0.0,2.0,95,0.00,,---,0.19,VWS V14.01,2013-05-22 10:00:00,
2013-05-22 05:05:00,63.6,62.2,29.67,SSE,155,2.0,2.0,95,0.00,,---,0.19,VWS V14.01,2013-05-22 10:05:00,
2013-05-22 05:10:00,63.6,62.2,29.67,SSE,155,0.0,2.0,95,0.00,,---,0.19,VWS V14.01,2013-05-22 10:10:00,
2013-05-22 05:15:00,63.5,62.0,29.67,SSE,155,0.0,2.0,95,0.00,,---,0.19,VWS V14.01,2013-05-22 10:15:00,
2013-05-22 05:20:00,63.4,62.0,29.67,South,191,0.0,2.0,95,0.00,,---,0.19,VWS V14.01,2013-05-22 10:20:00,
2013-05-22 05:25:00,63.3,61.8,29.67,South,191,1.0,2.0,95,0.00,,---,0.19,VWS V14.01,2013-05-22 10:25:00,
2013-05-22 05:30:00,63.2,61.8,29.67,South,191,0.0,2.0,95,0.00,,---,0.19,VWS V14.01,2013-05-22 10:30:00,
2013-05-22 05:35:00,63.2,61.8,29.66,South,188,0.0,0.0,95,0.00,,---,0.19,VWS V14.01,2013-05-22 10:35:00,
2013-05-22 05:40:00,63.1,61.7,29.66,South,188,0.0,1.0,95,0.00,,---,0.19,VWS V14.01,2013-05-22 10:40:00,
2013-05-22 05:45:00,63.1,61.7,29.66,South,188,0.0,2.0,95,0.00,,---,0.19,VWS V14.01,2013-05-22 10:45:00,
2013-05-22 05:50:00,63.0,61.5,29.66,South,188,0.0,2.0,95,0.00,,---,0.19,VWS V14.01,2013-05-22 10:50:00,
2013-05-22 05:55:00,63.0,61.5,29.66,South,189,0.0,2.0,95,0.00,,---,0.19,VWS V14.01,2013-05-22 10:55:00,
2013-05-22 06:00:00,63.0,61.5,29.66,SSE,155,3.0,3.0,95,0.00,,---,0.19,VWS V14.01,2013-05-22 11:00:00,
2013-05-22 06:05:00,63.0,61.5,29.66,SSE,157,2.0,3.0,95,0.00,,---,0.19,VWS V14.01,2013-05-22 11:05:00,
2013-05-22 06:10:00,63.2,61.8,29.66,SSE,163,0.0,3.0,95,0.00,,---,0.19,VWS V14.01,2013-05-22 11:10:00,
2013-05-22 06:15:00,63.4,62.0,29.66,SSE,166,0.0,3.0,95,0.00,,---,0.19,VWS V14.01,2013-05-22 11:15:00,
2013-05-22 06:20:00,63.6,62.4,29.67,SW,215,0.0,3.0,96,0.00,,---,0.19,VWS V14.01,2013-05-22 11:20:00,
2013-05-22 06:25:00,63.6,62.4,29.67,SE,145,0.0,3.0,96,0.00,,---,0.19,VWS V14.01,2013-05-22 11:25:00,
2013-05-22 06:30:00,63.5,62.0,29.67,South,172,0.0,6.0,95,0.00,,---,0.19,VWS V14.01,2013-05-22 11:30:00,
2013-05-22 06:35:00,63.5,62.0,29.67,SSE,164,2.0,4.0,95,0.00,,---,0.19,VWS V14.01,2013-05-22 11:35:00,
2013-05-22 06:40:00,63.6,62.4,29.67,South,173,0.0,4.0,96,0.00,,---,0.19,VWS V14.01,2013-05-22 11:40:00,
2013-05-22 06:45:00,63.7,62.5,29.67,SSE,153,4.0,8.0,96,0.00,,---,0.19,VWS V14.01,2013-05-22 11:45:00,
2013-05-22 06:50:00,63.8,62.6,29.67,SE,146,0.0,8.0,96,0.00,,---,0.19,VWS V14.01,2013-05-22 11:50:00,
2013-05-22 06:55:00,63.8,62.6,29.67,SE,143,0.0,8.0,96,0.00,,---,0.19,VWS V14.01,2013-05-22 11:55:00,
2013-05-22 07:00:00,63.8,62.6,29.67,South,181,0.0,8.0,96,0.00,,---,0.19,VWS V14.01,2013-05-22 12:00:00,
2013-05-22 07:05:00,63.8,62.6,29.67,SE,144,0.0,7.0,96,0.00,,---,0.19,VWS V14.01,2013-05-22 12:05:00,
2013-05-22 07:10:00,63.9,62.7,29.67,SSW,194,0.0,7.0,96,0.00,,---,0.19,VWS V14.01,2013-05-22 12:10:00,
2013-05-22 07:15:00,64.0,62.5,29.67,South,170,0.0,7.0,95,0.00,,---,0.19,VWS V14.01,2013-05-22 12:15:00,
2013-05-22 07:20:00,64.0,62.5,29.67,South,184,0.0,7.0,95,0.00,,---,0.19,VWS V14.01,2013-05-22 12:20:00,
2013-05-22 07:25:00,64.1,62.6,29.67,SSE,162,0.0,9.0,95,0.00,,---,0.19,VWS V14.01,2013-05-22 12:25:00,
2013-05-22 07:30:00,64.3,63.1,29.67,South,176,1.0,9.0,96,0.00,,---,0.19,VWS V14.01,2013-05-22 12:30:00,
2013-05-22 07:35:00,64.5,63.3,29.67,South,169,1.0,4.0,96,0.00,,---,0.19,VWS V14.01,2013-05-22 12:35:00,
2013-05-22 07:40:00,64.6,63.1,29.67,SW,234,1.0,5.0,95,0.00,,---,0.19,VWS V14.01,2013-05-22 12:40:00,
2013-05-22 07:45:00,64.6,63.1,29.67,SSW,198,2.0,9.0,95,0.00,,---,0.19,VWS V14.01,2013-05-22 12:45:00,
2013-05-22 07:50:00,64.5,63.0,29.67,SW,220,0.0,11.0,95,0.00,,---,0.19,VWS V14.01,2013-05-22 12:50:00,
2013-05-22 07:55:00,64.8,63.3,29.67,SSW,207,0.0,11.0,95,0.00,,---,0.19,VWS V14.01,2013-05-22 12:55:00,
2013-05-22 08:00:00,64.9,63.4,29.67,SSE,156,1.0,13.0,95,0.00,,---,0.19,VWS V14.01,2013-05-22 13:00:00,
2013-05-22 08:05:00,65.2,63.7,29.67,SSW,194,2.0,7.0,95,0.00,,---,0.19,VWS V14.01,2013-05-22 13:05:00,
2013-05-22 08:10:00,65.4,63.6,29.67,South,169,3.0,7.0,94,0.00,,---,0.19,VWS V14.01,2013-05-22 13:10:00,
2013-05-22 08:15:00,65.9,64.1,29.67,SSW,196,2.0,9.0,94,0.00,,---,0.19,VWS V14.01,2013-05-22 13:15:00,
2013-05-22 08:20:00,66.1,64.3,29.67,SW,215,0.0,11.0,94,0.00,,---,0.19,VWS V14.01,2013-05-22 13:20:00,
2013-05-22 08:25:00,66.3,64.2,29.67,SSW,200,0.0,11.0,93,0.00,,---,0.19,VWS V14.01,2013-05-22 13:25:00,
2013-05-22 08:30:00,66.8,64.7,29.67,SSW,194,0.0,11.0,93,0.00,,---,0.19,VWS V14.01,2013-05-22 13:30:00,
2013-05-22 08:35:00,67.1,64.7,29.67,SSW,207,5.0,7.0,92,0.00,,---,0.19,VWS V14.01,2013-05-22 13:35:00,
2013-05-22 08:40:00,67.5,64.8,29.67,SSE,164,3.0,7.0,91,0.00,,---,0.19,VWS V14.01,2013-05-22 13:40:00,
2013-05-22 08:45:00,67.9,65.2,29.67,South,171,0.0,7.0,91,0.00,,---,0.19,VWS V14.01,2013-05-22 13:45:00,
2013-05-22 08:50:00,68.3,65.3,29.67,SSW,211,1.0,7.0,90,0.00,,---,0.19,VWS V14.01,2013-05-22 13:50:00,
2013-05-22 08:55:00,68.7,65.3,29.67,SSE,161,0.0,7.0,89,0.00,,---,0.19,VWS V14.01,2013-05-22 13:55:00,
2013-05-22 09:00:00,69.2,65.5,29.67,South,185,0.0,7.0,88,0.00,,---,0.19,VWS V14.01,2013-05-22 14:00:00,
2013-05-22 09:05:00,69.7,65.7,29.68,SSW,211,0.0,4.0,87,0.00,,---,0.19,VWS V14.01,2013-05-22 14:05:00,
2013-05-22 09:10:00,69.9,65.2,29.68,SSW,193,0.0,5.0,85,0.00,,---,0.19,VWS V14.01,2013-05-22 14:10:00,
2013-05-22 09:15:00,70.0,65.3,29.68,South,178,6.0,10.0,85,0.00,,---,0.19,VWS V14.01,2013-05-22 14:15:00,
2013-05-22 09:20:00,70.2,65.5,29.68,South,182,1.0,10.0,85,0.00,,---,0.19,VWS V14.01,2013-05-22 14:20:00,
2013-05-22 09:25:00,70.8,66.1,29.68,SW,232,6.0,10.0,85,0.00,,---,0.19,VWS V14.01,2013-05-22 14:25:00,
2013-05-22 09:30:00,71.3,66.2,29.68,West,269,1.0,10.0,84,0.00,,---,0.19,VWS V14.01,2013-05-22 14:30:00,
2013-05-22 09:35:00,71.6,65.8,29.68,SW,220,1.0,7.0,82,0.00,,---,0.19,VWS V14.01,2013-05-22 14:35:00,
2013-05-22 09:40:00,71.7,65.9,29.68,South,177,2.0,7.0,82,0.00,,---,0.19,VWS V14.01,2013-05-22 14:40:00,
2013-05-22 09:45:00,72.3,66.5,29.68,SSW,207,2.0,7.0,82,0.00,,---,0.19,VWS V14.01,2013-05-22 14:45:00,
2013-05-22 09:50:00,72.5,66.0,29.69,South,189,1.0,7.0,80,0.00,,---,0.19,VWS V14.01,2013-05-22 14:50:00,
2013-05-22 09:55:00,72.8,65.9,29.69,SW,214,0.0,7.0,79,0.00,,---,0.19,VWS V14.01,2013-05-22 14:55:00,
2013-05-22 10:00:00,73.2,65.9,29.69,SW,231,0.0,7.0,78,0.00,,---,0.19,VWS V14.01,2013-05-22 15:00:00,
2013-05-22 10:05:00,73.5,65.9,29.69,WSW,250,0.0,4.0,77,0.00,,---,0.19,VWS V14.01,2013-05-22 15:05:00,
2013-05-22 10:10:00,74.0,66.3,29.69,SW,232,0.0,4.0,77,0.00,,---,0.19,VWS V14.01,2013-05-22 15:10:00,
2013-05-22 10:15:00,74.3,66.2,29.69,South,184,0.0,4.0,76,0.00,,---,0.19,VWS V14.01,2013-05-22 15:15:00,
2013-05-22 10:20:00,73.9,64.7,29.69,SW,219,1.0,6.0,73,0.00,,---,0.19,VWS V14.01,2013-05-22 15:20:00,
2013-05-22 10:25:00,73.2,64.4,29.69,SW,217,3.0,7.0,74,0.00,,---,0.19,VWS V14.01,2013-05-22 15:25:00,
2013-05-22 10:30:00,72.8,64.8,29.69,SW,216,0.0,7.0,76,0.00,,---,0.19,VWS V14.01,2013-05-22 15:30:00,
2013-05-22 10:35:00,72.5,64.1,29.70,West,274,3.0,5.0,75,0.00,,---,0.19,VWS V14.01,2013-05-22 15:35:00,
2013-05-22 10:40:00,72.3,64.3,29.70,South,170,0.0,5.0,76,0.00,,---,0.19,VWS V14.01,2013-05-22 15:40:00,
2013-05-22 10:45:00,72.3,64.3,29.70,SSW,202,0.0,5.0,76,0.00,,---,0.19,VWS V14.01,2013-05-22 15:45:00,
2013-05-22 10:50:00,72.3,64.3,29.70,South,186,1.0,5.0,76,0.00,,---,0.19,VWS V14.01,2013-05-22 15:50:00,
2013-05-22 10:55:00,72.1,64.5,29.70,SSW,210,1.0,5.0,77,0.00,,---,0.19,VWS V14.01,2013-05-22 15:55:00,
2013-05-22 11:00:00,71.9,64.3,29.70,NE,40,3.0,5.0,77,0.00,,---,0.19,VWS V14.01,2013-05-22 16:00:00,
2013-05-22 11:05:00,71.7,64.1,29.70,WSW,243,0.0,3.0,77,0.00,,---,0.19,VWS V14.01,2013-05-22 16:05:00,
2013-05-22 11:10:00,71.6,64.0,29.70,SSW,212,3.0,5.0,77,0.00,,---,0.19,VWS V14.01,2013-05-22 16:10:00,
2013-05-22 11:15:00,71.7,64.1,29.70,SSW,205,1.0,5.0,77,0.00,,---,0.19,VWS V14.01,2013-05-22 16:15:00,
2013-05-22 11:20:00,71.9,64.3,29.71,WNW,293,2.0,7.0,77,0.00,,---,0.19,VWS V14.01,2013-05-22 16:20:00,
2013-05-22 11:25:00,72.5,64.5,29.71,West,264,4.0,7.0,76,0.00,,---,0.19,VWS V14.01,2013-05-22 16:25:00,
2013-05-22 11:30:00,72.6,64.2,29.71,SSW,200,1.0,7.0,75,0.00,,---,0.19,VWS V14.01,2013-05-22 16:30:00,
2013-05-22 11:35:00,72.9,64.9,29.71,SSW,209,0.0,11.0,76,0.00,,---,0.19,VWS V14.01,2013-05-22 16:35:00,
2013-05-22 11:40:00,72.9,64.5,29.71,WSW,246,0.0,11.0,75,0.00,,---,0.19,VWS V14.01,2013-05-22 16:40:00,
2013-05-22 11:45:00,72.8,64.0,29.71,NW,310,4.0,11.0,74,0.00,,---,0.19,VWS V14.01,2013-05-22 16:45:00,
2013-05-22 11:50:00,72.8,64.0,29.71,WSW,248,4.0,11.0,74,0.00,,---,0.19,VWS V14.01,2013-05-22 16:50:00,
2013-05-22 11:55:00,73.3,64.5,29.71,West,272,0.0,11.0,74,0.00,,---,0.19,VWS V14.01,2013-05-22 16:55:00,
2013-05-22 12:00:00,73.7,64.1,29.71,SSW,208,4.0,11.0,72,0.00,,---,0.19,VWS V14.01,2013-05-22 17:00:00,
2013-05-22 12:05:00,73.6,64.4,29.70,WSW,248,1.0,6.0,73,0.00,,---,0.19,VWS V14.01,2013-05-22 17:05:00,
2013-05-22 12:10:00,73.5,63.9,29.70,WNW,282,6.0,6.0,72,0.00,,---,0.19,VWS V14.01,2013-05-22 17:10:00,
2013-05-22 12:15:00,73.3,64.1,29.70,WSW,250,2.0,11.0,73,0.00,,---,0.19,VWS V14.01,2013-05-22 17:15:00,
2013-05-22 12:20:00,73.3,64.5,29.71,WSW,253,0.0,11.0,74,0.00,,---,0.19,VWS V14.01,2013-05-22 17:20:00,
2013-05-22 12:25:00,73.9,64.3,29.71,SW,223,6.0,22.0,72,0.00,,---,0.19,VWS V14.01,2013-05-22 17:25:00,
2013-05-22 12:30:00,74.2,65.0,29.71,WNW,297,3.0,22.0,73,0.00,,---,0.19,VWS V14.01,2013-05-22 17:30:00,
2013-05-22 12:35:00,74.2,64.6,29.70,WNW,300,3.0,7.0,72,0.00,,---,0.19,VWS V14.01,2013-05-22 17:35:00,
2013-05-22 12:40:00,73.7,64.1,29.70,WSW,253,2.0,9.0,72,0.00,,---,0.19,VWS V14.01,2013-05-22 17:40:00,
2013-05-22 12:45:00,73.5,64.3,29.70,WSW,254,1.0,10.0,73,0.00,,---,0.19,VWS V14.01,2013-05-22 17:45:00,
2013-05-22 12:50:00,73.4,64.6,29.70,WNW,289,5.0,10.0,74,0.00,,---,0.19,VWS V14.01,2013-05-22 17:50:00,
2013-05-22 12:55:00,73.2,64.8,29.70,SW,235,3.0,10.0,75,0.00,,---,0.19,VWS V14.01,2013-05-22 17:55:00,
2013-05-22 13:00:00,73.3,64.5,29.70,SSW,196,3.0,11.0,74,0.00,,---,0.19,VWS V14.01,2013-05-22 18:00:00,
2013-05-22 13:05:00,73.6,64.0,29.70,WSW,252,1.0,6.0,72,0.00,,---,0.19,VWS V14.01,2013-05-22 18:05:00,
2013-05-22 13:10:00,73.7,64.5,29.70,South,174,0.0,7.0,73,0.00,,---,0.19,VWS V14.01,2013-05-22 18:10:00,
2013-05-22 13:15:00,73.8,64.6,29.70,SW,219,0.0,7.0,73,0.00,,---,0.19,VWS V14.01,2013-05-22 18:15:00,
2013-05-22 13:20:00,73.7,64.1,29.70,SW,224,0.0,7.0,72,0.00,,---,0.19,VWS V14.01,2013-05-22 18:20:00,
2013-05-22 13:25:00,73.6,64.8,29.70,WSW,244,0.0,7.0,74,0.00,,---,0.19,VWS V14.01,2013-05-22 18:25:00,
2013-05-22 13:30:00,73.9,64.7,29.70,SSW,213,0.0,7.0,73,0.00,,---,0.19,VWS V14.01,2013-05-22 18:30:00,
2013-05-22 13:35:00,74.0,64.4,29.70,SW,233,0.0,3.0,72,0.00,,---,0.19,VWS V14.01,2013-05-22 18:35:00,
2013-05-22 13:40:00,74.0,64.4,29.70,SW,234,0.0,7.0,72,0.00,,---,0.19,VWS V14.01,2013-05-22 18:40:00,
2013-05-22 13:45:00,74.3,64.3,29.70,South,189,0.0,7.0,71,0.00,,---,0.19,VWS V14.01,2013-05-22 18:45:00,
2013-05-22 13:50:00,75.3,65.3,29.70,SW,234,3.0,7.0,71,0.00,,---,0.19,VWS V14.01,2013-05-22 18:50:00,
2013-05-22 13:55:00,76.2,64.9,29.70,West,263,0.0,7.0,68,0.00,,---,0.19,VWS V14.01,2013-05-22 18:55:00,
2013-05-22 14:00:00,76.2,64.4,29.70,SSW,213,1.0,7.0,67,0.00,,---,0.19,VWS V14.01,2013-05-22 19:00:00,
2013-05-22 14:05:00,76.3,64.6,29.69,WSW,239,3.0,4.0,67,0.00,,---,0.19,VWS V14.01,2013-05-22 19:05:00,
2013-05-22 14:10:00,76.3,64.1,29.69,SSE,168,2.0,7.0,66,0.00,,---,0.19,VWS V14.01,2013-05-22 19:10:00,
2013-05-22 14:15:00,76.4,64.2,29.69,WSW,244,0.0,7.0,66,0.00,,---,0.19,VWS V14.01,2013-05-22 19:15:00,
2013-05-22 14:20:00,76.3,62.8,29.69,WSW,237,0.0,7.0,63,0.00,,---,0.19,VWS V14.01,2013-05-22 19:20:00,
2013-05-22 14:25:00,76.3,63.2,29.69,South,178,5.0,8.0,64,0.00,,---,0.19,VWS V14.01,2013-05-22 19:25:00,
2013-05-22 14:30:00,76.6,64.0,29.69,South,179,5.0,9.0,65,0.00,,---,0.19,VWS V14.01,2013-05-22 19:30:00,
2013-05-22 14:35:00,77.1,64.0,29.69,SE,138,9.0,11.0,64,0.00,,---,0.19,VWS V14.01,2013-05-22 19:35:00,
2013-05-22 14:40:00,77.5,64.4,29.69,WNW,285,1.0,11.0,64,0.00,,---,0.19,VWS V14.01,2013-05-22 19:40:00,
2013-05-22 14:45:00,77.9,63.8,29.69,SW,233,2.0,11.0,62,0.00,,---,0.19,VWS V14.01,2013-05-22 19:45:00,
2013-05-22 14:50:00,77.4,63.8,29.68,WSW,258,1.0,11.0,63,0.00,,---,0.19,VWS V14.01,2013-05-22 19:50:00,
2013-05-22 14:55:00,77.1,64.4,29.68,SW,236,0.0,11.0,65,0.00,,---,0.19,VWS V14.01,2013-05-22 19:55:00,
2013-05-22 15:00:00,77.3,64.6,29.68,WNW,292,2.0,11.0,65,0.00,,---,0.19,VWS V14.01,2013-05-22 20:00:00,
2013-05-22 15:05:00,77.2,64.5,29.68,NW,313,5.0,12.0,65,0.00,,---,0.19,VWS V14.01,2013-05-22 20:05:00,
2013-05-22 15:10:00,77.1,65.3,29.68,SSW,212,1.0,12.0,67,0.00,,---,0.19,VWS V14.01,2013-05-22 20:10:00,
2013-05-22 15:15:00,77.5,64.4,29.68,SW,236,0.0,12.0,64,0.00,,---,0.19,VWS V14.01,2013-05-22 20:15:00,
2013-05-22 15:20:00,78.0,64.4,29.68,NW,312,2.0,12.0,63,0.00,,---,0.19,VWS V14.01,2013-05-22 20:20:00,
2013-05-22 15:25:00,78.3,64.7,29.68,WSW,256,4.0,12.0,63,0.00,,---,0.19,VWS V14.01,2013-05-22 20:25:00,
2013-05-22 15:30:00,78.6,65.0,29.68,SW,224,3.0,12.0,63,0.00,,---,0.19,VWS V14.01,2013-05-22 20:30:00,
2013-05-22 15:35:00,78.9,65.2,29.68,SW,234,1.0,4.0,63,0.00,,---,0.19,VWS V14.01,2013-05-22 20:35:00,
2013-05-22 15:40:00,79.0,65.3,29.68,SSW,209,0.0,5.0,63,0.00,,---,0.19,VWS V14.01,2013-05-22 20:40:00,
2013-05-22 15:45:00,79.0,65.3,29.68,WSW,258,0.0,5.0,63,0.00,,---,0.19,VWS V14.01,2013-05-22 20:45:00,
2013-05-22 15:50:00,79.4,64.8,29.67,WNW,288,5.0,10.0,61,0.00,,---,0.19,VWS V14.01,2013-05-22 20:50:00,
2013-05-22 15:55:00,79.8,64.2,29.67,WSW,250,1.0,11.0,59,0.00,,---,0.19,VWS V14.01,2013-05-22 20:55:00,
2013-05-22 16:00:00,79.7,63.6,29.67,WSW,238,5.0,12.0,58,0.00,,---,0.19,VWS V14.01,2013-05-22 21:00:00,
2013-05-22 16:05:00,79.1,63.1,29.67,WNW,299,0.0,9.0,58,0.00,,---,0.19,VWS V14.01,2013-05-22 21:05:00,
2013-05-22 16:10:00,78.7,63.7,29.67,WSW,257,2.0,12.0,60,0.00,,---,0.19,VWS V14.01,2013-05-22 21:10:00,
2013-05-22 16:15:00,78.8,63.3,29.67,SW,229,1.0,12.0,59,0.00,,---,0.19,VWS V14.01,2013-05-22 21:15:00,
2013-05-22 16:20:00,79.2,63.7,29.67,WSW,247,0.0,12.0,59,0.00,,---,0.19,VWS V14.01,2013-05-22 21:20:00,
2013-05-22 16:25:00,80.1,64.5,29.67,WNW,286,0.0,12.0,59,0.00,,---,0.19,VWS V14.01,2013-05-22 21:25:00,
2013-05-22 16:30:00,80.0,63.4,29.67,NW,306,4.0,12.0,57,0.00,,---,0.19,VWS V14.01,2013-05-22 21:30:00,
2013-05-22 16:35:00,79.8,64.2,29.67,West,259,0.0,4.0,59,0.00,,---,0.19,VWS V14.01,2013-05-22 21:35:00,
2013-05-22 16:40:00,79.9,64.3,29.67,West,269,0.0,4.0,59,0.00,,---,0.19,VWS V14.01,2013-05-22 21:40:00,
2013-05-22 16:45:00,80.1,63.0,29.67,WSW,239,3.0,5.0,56,0.00,,---,0.19,VWS V14.01,2013-05-22 21:45:00,
2013-05-22 16:50:00,79.2,62.7,29.67,SW,221,0.0,11.0,57,0.00,,---,0.19,VWS V14.01,2013-05-22 21:50:00,
2013-05-22 16:55:00,79.0,63.0,29.67,WSW,237,4.0,11.0,58,0.00,,---,0.19,VWS V14.01,2013-05-22 21:55:00,
2013-05-22 17:00:00,79.1,62.6,29.67,WNW,288,6.0,11.0,57,0.00,,---,0.19,VWS V14.01,2013-05-22 22:00:00,
2013-05-22 17:05:00,79.2,63.2,29.67,West,274,0.0,3.0,58,0.00,,---,0.19,VWS V14.01,2013-05-22 22:05:00,
2013-05-22 17:10:00,79.6,63.0,29.67,SW,226,1.0,3.0,57,0.00,,---,0.19,VWS V14.01,2013-05-22 22:10:00,
2013-05-22 17:15:00,80.0,63.4,29.67,South,188,0.0,4.0,57,0.00,,---,0.19,VWS V14.01,2013-05-22 22:15:00,
2013-05-22 17:20:00,80.0,62.4,29.67,West,261,2.0,12.0,55,0.00,,---,0.19,VWS V14.01,2013-05-22 22:20:00,
2013-05-22 17:25:00,79.3,62.3,29.67,WSW,254,0.0,12.0,56,0.00,,---,0.19,VWS V14.01,2013-05-22 22:25:00,
2013-05-22 17:30:00,79.0,62.0,29.67,WSW,257,3.0,12.0,56,0.00,,---,0.19,VWS V14.01,2013-05-22 22:30:00,
2013-05-22 17:35:00,79.0,62.5,29.66,West,277,1.0,6.0,57,0.00,,---,0.19,VWS V14.01,2013-05-22 22:35:00,
2013-05-22 17:40:00,79.4,62.3,29.66,SW,234,1.0,6.0,56,0.00,,---,0.19,VWS V14.01,2013-05-22 22:40:00,
2013-05-22 17:45:00,79.4,62.9,29.66,West,277,1.0,6.0,57,0.00,,---,0.19,VWS V14.01,2013-05-22 22:45:00,
2013-05-22 17:50:00,79.3,61.8,29.66,SW,223,2.0,6.0,55,0.00,,---,0.19,VWS V14.01,2013-05-22 22:50:00,
2013-05-22 17:55:00,78.8,61.8,29.66,SW,219,0.0,6.0,56,0.00,,---,0.19,VWS V14.01,2013-05-22 22:55:00,
2013-05-22 18:00:00,78.7,62.2,29.66,WSW,250,0.0,6.0,57,0.00,,---,0.19,VWS V14.01,2013-05-22 23:00:00,
2013-05-22 18:05:00,78.7,62.2,29.66,SSW,213,0.0,1.0,57,0.00,,---,0.19,VWS V14.01,2013-05-22 23:05:00,
2013-05-22 18:10:00,79.1,62.6,29.66,SW,232,1.0,2.0,57,0.00,,---,0.19,VWS V14.01,2013-05-22 23:10:00,
2013-05-22 18:15:00,79.4,63.3,29.66,SW,230,0.0,2.0,58,0.00,,---,0.19,VWS V14.01,2013-05-22 23:15:00,
2013-05-22 18:20:00,79.8,63.7,29.67,SSE,163,2.0,2.0,58,0.00,,---,0.19,VWS V14.01,2013-05-22 23:20:00,
2013-05-22 18:25:00,79.7,63.1,29.67,SW,226,1.0,3.0,57,0.00,,---,0.19,VWS V14.01,2013-05-22 23:25:00,
2013-05-22 18:30:00,79.1,62.6,29.67,South,182,0.0,4.0,57,0.00,,---,0.19,VWS V14.01,2013-05-22 23:30:00,
2013-05-22 18:35:00,78.7,62.7,29.67,WSW,256,0.0,2.0,58,0.00,,---,0.19,VWS V14.01,2013-05-22 23:35:00,
2013-05-22 18:40:00,78.7,62.7,29.67,SE,145,1.0,3.0,58,0.00,,---,0.19,VWS V14.01,2013-05-22 23:40:00,
2013-05-22 18:45:00,78.4,63.4,29.67,SSE,155,0.0,3.0,60,0.00,,---,0.19,VWS V14.01,2013-05-22 23:45:00,
2013-05-22 18:50:00,78.2,62.7,29.67,SW,223,0.0,3.0,59,0.00,,---,0.19,VWS V14.01,2013-05-22 23:50:00,
2013-05-22 18:55:00,77.8,62.8,29.67,WSW,257,0.0,3.0,60,0.00,,---,0.19,VWS V14.01,2013-05-22 23:55:00,
2013-05-22 19:00:00,77.5,62.5,29.67,WSW,252,0.0,3.0,60,0.00,,---,0.19,VWS V14.01,2013-05-23 00:00:00,
2013-05-22 19:05:00,77.1,62.6,29.67,WSW,248,0.0,1.0,61,0.00,,---,0.19,VWS V14.01,2013-05-23 00:05:00,
2013-05-22 19:10:00,76.8,62.3,29.67,WSW,240,0.0,1.0,61,0.00,,---,0.19,VWS V14.01,2013-05-23 00:10:00,
2013-05-22 19:16:00,76.6,62.6,29.67,SE,144,1.0,1.0,62,0.00,,---,0.19,VWS V14.01,2013-05-23 00:16:00,
2013-05-22 19:21:00,76.2,62.7,29.67,SW,219,0.0,3.0,63,0.00,,---,0.19,VWS V14.01,2013-05-23 00:21:00,
2013-05-22 19:26:00,75.8,62.3,29.67,SW,219,0.0,3.0,63,0.00,,---,0.19,VWS V14.01,2013-05-23 00:26:00,
2013-05-22 19:31:00,75.3,62.3,29.67,WSW,252,0.0,3.0,64,0.00,,---,0.19,VWS V14.01,2013-05-23 00:31:00,
2013-05-22 19:36:00,74.7,62.2,29.68,WSW,252,0.0,1.0,65,0.00,,---,0.19,VWS V14.01,2013-05-23 00:36:00,
2013-05-22 19:41:00,74.2,62.1,29.68,WSW,252,0.0,1.0,66,0.00,,---,0.19,VWS V14.01,2013-05-23 00:41:00,
2013-05-22 19:46:00,73.8,62.2,29.68,WSW,252,0.0,1.0,67,0.00,,---,0.19,VWS V14.01,2013-05-23 00:46:00,
2013-05-22 19:51:00,73.3,62.1,29.68,WSW,252,0.0,1.0,68,0.00,,---,0.19,VWS V14.01,2013-05-23 00:51:00,
2013-05-22 19:56:00,72.9,61.7,29.68,WSW,252,0.0,1.0,68,0.00,,---,0.19,VWS V14.01,2013-05-23 00:56:00,
2013-05-22 20:01:00,72.6,61.9,29.68,WSW,252,0.0,1.0,69,0.00,,---,0.19,VWS V14.01,2013-05-23 01:01:00,
2013-05-22 20:06:00,72.2,61.9,29.68,WSW,252,0.0,0.0,70,0.00,,---,0.19,VWS V14.01,2013-05-23 01:06:00,
2013-05-22 20:11:00,71.8,61.9,29.68,WSW,252,0.0,0.0,71,0.00,,---,0.19,VWS V14.01,2013-05-23 01:11:00,
2013-05-22 20:16:00,71.5,62.0,29.68,WSW,252,0.0,0.0,72,0.00,,---,0.19,VWS V14.01,2013-05-23 01:16:00,
2013-05-22 20:21:00,71.1,62.0,29.69,WSW,252,0.0,0.0,73,0.00,,---,0.19,VWS V14.01,2013-05-23 01:21:00,
2013-05-22 20:26:00,70.7,61.6,29.69,WSW,252,0.0,0.0,73,0.00,,---,0.19,VWS V14.01,2013-05-23 01:26:00,
2013-05-22 20:31:00,70.4,61.7,29.69,WSW,252,0.0,0.0,74,0.00,,---,0.19,VWS V14.01,2013-05-23 01:31:00,
2013-05-22 20:36:00,70.0,61.7,29.69,WSW,252,0.0,0.0,75,0.00,,---,0.19,VWS V14.01,2013-05-23 01:36:00,
2013-05-22 20:41:00,69.7,61.8,29.69,WSW,252,0.0,0.0,76,0.00,,---,0.19,VWS V14.01,2013-05-23 01:41:00,
2013-05-22 20:46:00,69.4,61.5,29.69,WSW,252,0.0,0.0,76,0.00,,---,0.19,VWS V14.01,2013-05-23 01:46:00,
2013-05-22 20:51:00,69.1,61.6,29.70,WSW,252,0.0,0.0,77,0.00,,---,0.19,VWS V14.01,2013-05-23 01:51:00,
2013-05-22 20:56:00,68.8,61.3,29.70,WSW,252,0.0,0.0,77,0.00,,---,0.19,VWS V14.01,2013-05-23 01:56:00,
2013-05-22 21:01:00,68.6,61.5,29.70,WSW,252,0.0,0.0,78,0.00,,---,0.19,VWS V14.01,2013-05-23 02:01:00,
2013-05-22 21:06:00,68.4,61.6,29.70,WSW,252,0.0,0.0,79,0.00,,---,0.19,VWS V14.01,2013-05-23 02:06:00,
2013-05-22 21:11:00,68.2,61.5,29.70,WSW,252,0.0,0.0,79,0.00,,---,0.19,VWS V14.01,2013-05-23 02:11:00,
2013-05-22 21:16:00,68.0,61.2,29.70,WSW,252,0.0,1.0,79,0.00,,---,0.19,VWS V14.01,2013-05-23 02:16:00,
2013-05-22 21:21:00,67.9,61.5,29.70,WSW,252,0.0,1.0,80,0.00,,---,0.19,VWS V14.01,2013-05-23 02:21:00,
2013-05-22 21:26:00,67.7,61.3,29.70,SW,234,0.0,1.0,80,0.00,,---,0.19,VWS V14.01,2013-05-23 02:26:00,
2013-05-22 21:31:00,67.5,61.5,29.70,SW,217,0.0,1.0,81,0.00,,---,0.19,VWS V14.01,2013-05-23 02:31:00,
2013-05-22 21:36:00,67.4,61.4,29.71,South,190,0.0,2.0,81,0.00,,---,0.19,VWS V14.01,2013-05-23 02:36:00,
2013-05-22 21:41:00,67.3,61.3,29.71,South,191,0.0,2.0,81,0.00,,---,0.19,VWS V14.01,2013-05-23 02:41:00,
2013-05-22 21:46:00,67.1,61.1,29.71,South,191,0.0,2.0,81,0.00,,---,0.19,VWS V14.01,2013-05-23 02:46:00,
2013-05-22 21:51:00,67.0,61.0,29.71,South,191,0.0,2.0,81,0.00,,---,0.19,VWS V14.01,2013-05-23 02:51:00,
2013-05-22 21:56:00,66.9,60.9,29.71,South,191,0.0,2.0,81,0.00,,---,0.19,VWS V14.01,2013-05-23 02:56:00,
2013-05-22 22:01:00,66.7,60.7,29.71,South,190,0.0,2.0,81,0.00,,---,0.19,VWS V14.01,2013-05-23 03:01:00,
2013-05-22 22:06:00,66.6,60.9,29.71,South,191,0.0,0.0,82,0.00,,---,0.19,VWS V14.01,2013-05-23 03:06:00,
2013-05-22 22:11:00,66.5,60.8,29.71,South,191,0.0,0.0,82,0.00,,---,0.19,VWS V14.01,2013-05-23 03:11:00,
2013-05-22 22:16:00,66.4,60.7,29.71,South,191,0.0,0.0,82,0.00,,---,0.19,VWS V14.01,2013-05-23 03:16:00,
2013-05-22 22:21:00,66.4,60.7,29.72,South,190,0.0,0.0,82,0.00,,---,0.19,VWS V14.01,2013-05-23 03:21:00,
2013-05-22 22:26:00,66.4,61.1,29.72,South,190,0.0,1.0,83,0.00,,---,0.19,VWS V14.01,2013-05-23 03:26:00,
2013-05-22 22:31:00,66.5,61.2,29.72,South,191,0.0,1.0,83,0.00,,---,0.19,VWS V14.01,2013-05-23 03:31:00,
2013-05-22 22:36:00,66.7,61.4,29.72,SSE,147,0.0,2.0,83,0.00,,---,0.19,VWS V14.01,2013-05-23 03:36:00,
2013-05-22 22:41:00,66.8,61.5,29.72,SE,134,0.0,4.0,83,0.00,,---,0.19,VWS V14.01,2013-05-23 03:41:00,
2013-05-22 22:46:00,67.0,61.3,29.72,SE,134,0.0,4.0,82,0.00,,---,0.19,VWS V14.01,2013-05-23 03:46:00,
2013-05-22 22:51:00,67.0,61.3,29.72,SE,139,0.0,4.0,82,0.00,,---,0.19,VWS V14.01,2013-05-23 03:51:00,
2013-05-22 22:56:00,67.1,61.4,29.72,SE,139,0.0,4.0,82,0.00,,---,0.19,VWS V14.01,2013-05-23 03:56:00,
2013-05-22 23:01:00,67.1,61.4,29.72,SE,140,0.0,4.0,82,0.00,,---,0.19,VWS V14.01,2013-05-23 04:01:00,
2013-05-22 23:06:00,67.1,61.4,29.72,SSW,204,0.0,2.0,82,0.00,,---,0.19,VWS V14.01,2013-05-23 04:06:00,
2013-05-22 23:11:00,67.2,61.5,29.72,SSW,204,0.0,2.0,82,0.00,,---,0.19,VWS V14.01,2013-05-23 04:11:00,
2013-05-22 23:16:00,67.2,61.5,29.72,SSW,204,0.0,2.0,82,0.00,,---,0.19,VWS V14.01,2013-05-23 04:16:00,
2013-05-22 23:21:00,67.2,61.5,29.72,SSW,204,0.0,2.0,82,0.00,,---,0.19,VWS V14.01,2013-05-23 04:21:00,
2013-05-22 23:26:00,67.2,61.5,29.72,ESE,107,0.0,2.0,82,0.00,,---,0.19,VWS V14.01,2013-05-23 04:26:00,
2013-05-22 23:31:00,67.2,61.5,29.72,SSE,161,0.0,2.0,82,0.00,,---,0.19,VWS V14.01,2013-05-23 04:31:00,
2013-05-22 23:36:00,67.1,61.1,29.72,SSW,209,0.0,4.0,81,0.00,,---,0.19,VWS V14.01,2013-05-23 04:36:00,
2013-05-22 23:41:00,67.1,61.1,29.72,SSW,209,0.0,4.0,81,0.00,,---,0.19,VWS V14.01,2013-05-23 04:41:00,
2013-05-22 23:46:00,67.1,61.1,29.72,SSW,209,0.0,4.0,81,0.00,,---,0.19,VWS V14.01,2013-05-23 04:46:00,
2013-05-22 23:51:00,67.1,61.4,29.72,SSW,209,0.0,4.0,82,0.00,,---,0.19,VWS V14.01,2013-05-23 04:51:00,
2013-05-22 23:56:00,67.1,61.1,29.72,SSE,160,0.0,4.0,81,0.00,,---,0.19,VWS V14.01,2013-05-23 04:56:00,